createdAt,value
2017-11-18T00:00:11.653Z,1017.63
2017-11-18T00:01:11.670Z,1017.64
2017-11-18T00:02:11.686Z,1017.67
2017-11-18T00:03:11.703Z,1017.61
2017-11-18T00:04:11.721Z,1017.65
2017-11-18T00:05:11.737Z,1017.60
2017-11-18T00:06:11.755Z,1017.63
2017-11-18T00:07:11.772Z,1017.63
2017-11-18T00:08:11.789Z,1017.62
2017-11-18T00:09:11.804Z,1017.63
2017-11-18T00:10:11.821Z,1017.61
2017-11-18T00:11:11.838Z,1017.62
2017-11-18T00:12:11.854Z,1017.61
2017-11-18T00:13:11.871Z,1017.58
2017-11-18T00:14:11.891Z,1017.57
2017-11-18T00:15:11.905Z,1017.56
2017-11-18T00:16:11.921Z,1017.56
2017-11-18T00:17:11.942Z,1017.54
2017-11-18T00:18:11.955Z,1017.49
2017-11-18T00:19:11.972Z,1017.51
2017-11-18T00:20:11.988Z,1017.49
2017-11-18T00:21:12.005Z,1017.49
2017-11-18T00:22:12.021Z,1017.50
2017-11-18T00:23:12.039Z,1017.55
2017-11-18T00:24:12.064Z,1017.55
2017-11-18T00:25:12.072Z,1017.54
2017-11-18T00:26:12.089Z,1017.56
2017-11-18T00:27:12.105Z,1017.55
2017-11-18T00:28:12.122Z,1017.53
2017-11-18T00:29:12.140Z,1017.53
2017-11-18T00:30:12.156Z,1017.58
2017-11-18T00:31:12.172Z,1017.56
2017-11-18T00:32:12.188Z,1017.53
2017-11-18T00:33:12.205Z,1017.54
2017-11-18T00:34:12.222Z,1017.53
2017-11-18T00:35:12.239Z,1017.54
2017-11-18T00:36:12.285Z,1017.57
2017-11-18T00:37:12.271Z,1017.49
2017-11-18T00:38:12.290Z,1017.51
2017-11-18T00:39:12.305Z,1017.52
2017-11-18T00:40:12.323Z,1017.53
2017-11-18T00:41:12.338Z,1017.54
2017-11-18T00:42:12.356Z,1017.50
2017-11-18T00:43:12.373Z,1017.57
2017-11-18T00:44:12.389Z,1017.56
2017-11-18T00:45:12.405Z,1017.54
2017-11-18T00:46:12.421Z,1017.46
2017-11-18T00:47:12.439Z,1017.49
2017-11-18T00:48:12.458Z,1017.45
2017-11-18T00:49:12.472Z,1017.44
2017-11-18T00:50:12.488Z,1017.40
2017-11-18T00:51:12.505Z,1017.40
2017-11-18T00:52:12.520Z,1017.36
2017-11-18T00:53:12.544Z,1017.37
2017-11-18T00:54:12.556Z,1017.36
2017-11-18T00:55:12.571Z,1017.32
2017-11-18T00:56:12.588Z,1017.30
2017-11-18T00:57:12.604Z,1017.28
2017-11-18T00:58:12.621Z,1017.31
2017-11-18T00:59:12.638Z,1017.28
2017-11-18T01:00:12.653Z,1017.22
2017-11-18T01:01:12.672Z,1017.22
2017-11-18T01:02:12.688Z,1017.20
2017-11-18T01:03:12.705Z,1017.19
2017-11-18T01:04:12.720Z,1017.15
2017-11-18T01:05:12.739Z,1017.10
2017-11-18T01:06:12.754Z,1017.14
2017-11-18T01:07:12.770Z,1017.09
2017-11-18T01:08:12.786Z,1017.08
2017-11-18T01:09:12.804Z,1017.13
2017-11-18T01:10:12.824Z,1017.12
2017-11-18T01:11:12.838Z,1017.16
2017-11-18T01:12:12.853Z,1017.11
2017-11-18T01:13:12.870Z,1017.10
2017-11-18T01:14:12.886Z,1017.04
2017-11-18T01:15:12.903Z,1017.07
2017-11-18T01:16:12.919Z,1017.00
2017-11-18T01:17:12.936Z,1016.97
2017-11-18T01:18:12.952Z,1016.96
2017-11-18T01:19:12.969Z,1016.93
2017-11-18T01:20:12.983Z,1016.95
2017-11-18T01:21:13.001Z,1016.95
2017-11-18T01:22:13.019Z,1016.98
2017-11-18T01:23:13.036Z,1016.92
2017-11-18T01:24:13.050Z,1016.90
2017-11-18T01:25:13.068Z,1016.85
2017-11-18T01:26:13.083Z,1016.84
2017-11-18T01:27:13.103Z,1016.81
2017-11-18T01:28:13.116Z,1016.83
2017-11-18T01:29:13.133Z,1016.80
2017-11-18T01:30:13.150Z,1016.78
2017-11-18T01:31:13.166Z,1016.82
2017-11-18T01:32:13.184Z,1016.79
2017-11-18T01:33:13.199Z,1016.83
2017-11-18T01:34:13.215Z,1016.84
2017-11-18T01:35:13.232Z,1016.83
2017-11-18T01:36:13.248Z,1016.79
2017-11-18T01:37:13.265Z,1016.82
2017-11-18T01:38:13.292Z,1016.79
2017-11-18T01:39:13.298Z,1016.80
2017-11-18T01:40:13.315Z,1016.83
2017-11-18T01:41:13.338Z,1016.72
2017-11-18T01:42:13.348Z,1016.70
2017-11-18T01:43:13.365Z,1016.70
2017-11-18T01:44:13.381Z,1016.63
2017-11-18T01:45:13.397Z,1016.57
2017-11-18T01:46:13.413Z,1016.59
2017-11-18T01:47:13.459Z,1016.54
2017-11-18T01:48:13.447Z,1016.57
2017-11-18T01:49:13.464Z,1016.57
2017-11-18T01:50:13.482Z,1016.50
2017-11-18T01:51:13.497Z,1016.54
2017-11-18T01:52:13.513Z,1016.50
2017-11-18T01:53:13.531Z,1016.50
2017-11-18T01:54:13.548Z,1016.50
2017-11-18T01:55:13.568Z,1016.47
2017-11-18T01:56:13.730Z,1016.42
2017-11-18T01:57:13.597Z,1016.48
2017-11-18T01:58:13.614Z,1016.49
2017-11-18T01:59:13.630Z,1016.45
2017-11-18T02:00:13.646Z,1016.43
2017-11-18T02:01:13.701Z,1016.41
2017-11-18T02:02:13.681Z,1016.41
2017-11-18T02:03:13.699Z,1016.34
2017-11-18T02:04:13.713Z,1016.29
2017-11-18T02:05:13.734Z,1016.33
2017-11-18T02:06:13.748Z,1016.33
2017-11-18T02:07:13.764Z,1016.29
2017-11-18T02:08:13.781Z,1016.28
2017-11-18T02:09:13.796Z,1016.24
2017-11-18T02:10:13.815Z,1016.25
2017-11-18T02:11:13.832Z,1016.17
2017-11-18T02:12:13.848Z,1016.21
2017-11-18T02:13:13.868Z,1016.23
2017-11-18T02:14:13.883Z,1016.21
2017-11-18T02:15:13.898Z,1016.18
2017-11-18T02:16:13.914Z,1016.09
2017-11-18T02:17:13.966Z,1016.02
2017-11-18T02:18:13.948Z,1016.07
2017-11-18T02:19:13.968Z,1016.06
2017-11-18T02:20:13.982Z,1016.01
2017-11-18T02:21:13.998Z,1016.01
2017-11-18T02:22:14.016Z,1016.00
2017-11-18T02:23:14.034Z,1015.99
2017-11-18T02:24:14.049Z,1015.97
2017-11-18T02:25:14.065Z,1015.96
2017-11-18T02:26:14.085Z,1015.96
2017-11-18T02:27:14.101Z,1015.95
2017-11-18T02:28:14.116Z,1015.96
2017-11-18T02:29:14.233Z,1015.97
2017-11-18T02:30:14.152Z,1015.97
2017-11-18T02:31:14.167Z,1015.90
2017-11-18T02:32:14.185Z,1015.94
2017-11-18T02:33:14.252Z,1015.93
2017-11-18T02:34:14.218Z,1015.98
2017-11-18T02:35:14.236Z,1015.96
2017-11-18T02:36:14.252Z,1015.98
2017-11-18T02:37:14.267Z,1015.97
2017-11-18T02:38:14.286Z,1015.96
2017-11-18T02:39:14.302Z,1015.97
2017-11-18T02:40:14.319Z,1015.90
2017-11-18T02:41:14.340Z,1015.87
2017-11-18T02:42:14.351Z,1015.92
2017-11-18T02:43:14.371Z,1015.93
2017-11-18T02:44:14.386Z,1015.88
2017-11-18T02:45:14.404Z,1015.86
2017-11-18T02:46:14.421Z,1015.87
2017-11-18T02:47:14.439Z,1015.90
2017-11-18T02:48:14.453Z,1015.85
2017-11-18T02:49:14.472Z,1015.82
2017-11-18T02:50:14.492Z,1015.80
2017-11-18T02:51:14.505Z,1015.81
2017-11-18T02:52:14.521Z,1015.79
2017-11-18T02:53:14.561Z,1015.78
2017-11-18T02:54:14.557Z,1015.70
2017-11-18T02:55:14.571Z,1015.74
2017-11-18T02:56:14.587Z,1015.66
2017-11-18T02:57:14.605Z,1015.60
2017-11-18T02:58:14.622Z,1015.60
2017-11-18T02:59:14.640Z,1015.56
2017-11-18T03:00:14.656Z,1015.58
2017-11-18T03:01:14.674Z,1015.57
2017-11-18T03:02:14.689Z,1015.59
2017-11-18T03:03:14.707Z,1015.60
2017-11-18T03:04:14.722Z,1015.57
2017-11-18T03:05:14.741Z,1015.54
2017-11-18T03:06:14.757Z,1015.52
2017-11-18T03:07:14.774Z,1015.53
2017-11-18T03:08:14.798Z,1015.54
2017-11-18T03:09:14.808Z,1015.49
2017-11-18T03:10:14.825Z,1015.46
2017-11-18T03:11:14.842Z,1015.47
2017-11-18T03:12:14.858Z,1015.47
2017-11-18T03:13:14.877Z,1015.48
2017-11-18T03:14:14.893Z,1015.44
2017-11-18T03:15:14.911Z,1015.41
2017-11-18T03:16:14.926Z,1015.42
2017-11-18T03:17:14.944Z,1015.36
2017-11-18T03:18:14.961Z,1015.35
2017-11-18T03:19:14.978Z,1015.37
2017-11-18T03:20:14.994Z,1015.34
2017-11-18T03:21:15.011Z,1015.41
2017-11-18T03:22:15.029Z,1015.33
2017-11-18T03:23:15.045Z,1015.39
2017-11-18T03:24:15.062Z,1015.36
2017-11-18T03:25:15.078Z,1015.37
2017-11-18T03:26:15.097Z,1015.38
2017-11-18T03:27:15.113Z,1015.39
2017-11-18T03:28:15.130Z,1015.33
2017-11-18T03:29:15.156Z,1015.37
2017-11-18T03:30:15.166Z,1015.31
2017-11-18T03:31:15.184Z,1015.29
2017-11-18T03:32:15.199Z,1015.27
2017-11-18T03:33:15.215Z,1015.24
2017-11-18T03:34:15.234Z,1015.28
2017-11-18T03:35:15.251Z,1015.24
2017-11-18T03:36:15.265Z,1015.24
2017-11-18T03:37:15.282Z,1015.25
2017-11-18T03:38:15.301Z,1015.23
2017-11-18T03:39:15.317Z,1015.23
2017-11-18T03:40:15.333Z,1015.26
2017-11-18T03:41:15.361Z,1015.24
2017-11-18T03:42:15.369Z,1015.24
2017-11-18T03:43:15.385Z,1015.19
2017-11-18T03:44:15.411Z,1015.19
2017-11-18T03:45:15.418Z,1015.23
2017-11-18T03:46:15.441Z,1015.21
2017-11-18T03:47:15.454Z,1015.22
2017-11-18T03:48:15.469Z,1015.26
2017-11-18T03:49:15.488Z,1015.24
2017-11-18T03:50:15.504Z,1015.22
2017-11-18T03:51:15.523Z,1015.21
2017-11-18T03:52:15.538Z,1015.23
2017-11-18T03:53:15.555Z,1015.22
2017-11-18T03:54:15.573Z,1015.21
2017-11-18T03:55:15.589Z,1015.16
2017-11-18T03:56:15.621Z,1015.15
2017-11-18T03:57:15.623Z,1015.15
2017-11-18T03:58:15.639Z,1015.16
2017-11-18T03:59:15.657Z,1015.15
2017-11-18T04:00:15.674Z,1015.17
2017-11-18T04:01:15.692Z,1015.17
2017-11-18T04:02:15.708Z,1015.20
2017-11-18T04:03:15.731Z,1015.17
2017-11-18T04:04:15.741Z,1015.16
2017-11-18T04:05:15.759Z,1015.14
2017-11-18T04:06:15.776Z,1015.14
2017-11-18T04:07:15.794Z,1015.15
2017-11-18T04:08:15.811Z,1015.12
2017-11-18T04:09:15.827Z,1015.06
2017-11-18T04:10:15.844Z,1015.08
2017-11-18T04:11:15.861Z,1015.08
2017-11-18T04:12:15.879Z,1015.09
2017-11-18T04:13:15.895Z,1015.08
2017-11-18T04:14:15.914Z,1015.03
2017-11-18T04:15:15.931Z,1014.99
2017-11-18T04:16:15.948Z,1015.06
2017-11-18T04:17:15.970Z,1015.07
2017-11-18T04:18:15.981Z,1015.05
2017-11-18T04:19:15.999Z,1015.04
2017-11-18T04:20:16.015Z,1015.04
2017-11-18T04:21:16.033Z,1015.03
2017-11-18T04:22:16.051Z,1014.96
2017-11-18T04:23:16.067Z,1014.94
2017-11-18T04:24:16.084Z,1014.89
2017-11-18T04:25:16.101Z,1014.87
2017-11-18T04:26:16.118Z,1014.86
2017-11-18T04:27:16.137Z,1014.80
2017-11-18T04:28:16.152Z,1014.77
2017-11-18T04:29:16.170Z,1014.78
2017-11-18T04:30:16.186Z,1014.73
2017-11-18T04:31:16.204Z,1014.71
2017-11-18T04:32:16.221Z,1014.72
2017-11-18T04:33:16.237Z,1014.72
2017-11-18T04:34:16.254Z,1014.70
2017-11-18T04:35:16.273Z,1014.67
2017-11-18T04:36:16.288Z,1014.61
2017-11-18T04:37:16.305Z,1014.62
2017-11-18T04:38:16.374Z,1014.57
2017-11-18T04:39:16.341Z,1014.59
2017-11-18T04:40:16.357Z,1014.62
2017-11-18T04:41:16.373Z,1014.61
2017-11-18T04:42:16.392Z,1014.57
2017-11-18T04:43:16.410Z,1014.55
2017-11-18T04:44:16.427Z,1014.47
2017-11-18T04:45:16.442Z,1014.48
2017-11-18T04:46:16.460Z,1014.49
2017-11-18T04:47:16.480Z,1014.51
2017-11-18T04:48:16.496Z,1014.46
2017-11-18T04:49:16.510Z,1014.48
2017-11-18T04:50:16.529Z,1014.44
2017-11-18T04:51:16.544Z,1014.47
2017-11-18T04:52:16.566Z,1014.47
2017-11-18T04:53:16.578Z,1014.45
2017-11-18T04:54:16.596Z,1014.45
2017-11-18T04:55:16.612Z,1014.43
2017-11-18T04:56:16.630Z,1014.42
2017-11-18T04:57:16.647Z,1014.41
2017-11-18T04:58:16.702Z,1014.38
2017-11-18T04:59:16.680Z,1014.36
2017-11-18T05:00:16.697Z,1014.35
2017-11-18T05:01:16.714Z,1014.37
2017-11-18T05:02:16.731Z,1014.36
2017-11-18T05:03:16.751Z,1014.30
2017-11-18T05:04:16.765Z,1014.27
2017-11-18T05:05:16.783Z,1014.24
2017-11-18T05:06:16.801Z,1014.25
2017-11-18T05:07:16.817Z,1014.21
2017-11-18T05:08:16.834Z,1014.24
2017-11-18T05:09:16.861Z,1014.26
2017-11-18T05:10:16.870Z,1014.24
2017-11-18T05:11:16.886Z,1014.22
2017-11-18T05:12:16.903Z,1014.25
2017-11-18T05:13:16.919Z,1014.24
2017-11-18T05:14:16.938Z,1014.24
2017-11-18T05:15:16.954Z,1014.26
2017-11-18T05:16:16.974Z,1014.22
2017-11-18T05:17:16.987Z,1014.25
2017-11-18T05:18:17.005Z,1014.17
2017-11-18T05:19:17.022Z,1014.16
2017-11-18T05:20:17.039Z,1014.13
2017-11-18T05:21:17.055Z,1014.14
2017-11-18T05:22:17.073Z,1014.14
2017-11-18T05:23:17.090Z,1014.12
2017-11-18T05:24:17.107Z,1014.11
2017-11-18T05:25:17.124Z,1014.09
2017-11-18T05:26:17.141Z,1014.10
2017-11-18T05:27:17.161Z,1014.09
2017-11-18T05:28:17.174Z,1014.06
2017-11-18T05:29:17.191Z,1014.03
2017-11-18T05:30:17.209Z,1014.02
2017-11-18T05:31:17.229Z,1014.00
2017-11-18T05:32:17.243Z,1013.99
2017-11-18T05:33:17.260Z,1013.98
2017-11-18T05:34:17.277Z,1013.95
2017-11-18T05:35:17.298Z,1013.93
2017-11-18T05:36:17.312Z,1013.94
2017-11-18T05:37:17.328Z,1013.96
2017-11-18T05:38:17.355Z,1013.91
2017-11-18T05:39:17.362Z,1013.90
2017-11-18T05:40:17.380Z,1013.86
2017-11-18T05:41:17.397Z,1013.90
2017-11-18T05:42:17.414Z,1013.84
2017-11-18T05:43:17.430Z,1013.84
2017-11-18T05:44:17.448Z,1013.86
2017-11-18T05:45:17.465Z,1013.84
2017-11-18T05:46:17.482Z,1013.79
2017-11-18T05:47:17.499Z,1013.81
2017-11-18T05:48:17.515Z,1013.83
2017-11-18T05:49:17.533Z,1013.77
2017-11-18T05:50:17.551Z,1013.75
2017-11-18T05:51:17.569Z,1013.78
2017-11-18T05:52:17.583Z,1013.71
2017-11-18T05:53:17.601Z,1013.72
2017-11-18T05:54:17.618Z,1013.73
2017-11-18T05:55:17.634Z,1013.68
2017-11-18T05:56:17.653Z,1013.68
2017-11-18T05:57:17.668Z,1013.70
2017-11-18T05:58:17.686Z,1013.71
2017-11-18T05:59:17.702Z,1013.62
2017-11-18T06:00:17.720Z,1013.58
2017-11-18T06:01:17.736Z,1013.65
2017-11-18T06:02:17.754Z,1013.63
2017-11-18T06:03:17.771Z,1013.58
2017-11-18T06:04:17.789Z,1013.61
2017-11-18T06:05:17.806Z,1013.62
2017-11-18T06:06:17.822Z,1013.61
2017-11-18T06:07:17.868Z,1013.59
2017-11-18T06:08:17.867Z,1013.55
2017-11-18T06:09:17.874Z,1013.58
2017-11-18T06:10:17.901Z,1013.50
2017-11-18T06:11:17.908Z,1013.55
2017-11-18T06:12:17.925Z,1013.50
2017-11-18T06:13:17.941Z,1013.49
2017-11-18T06:14:17.959Z,1013.50
2017-11-18T06:15:17.976Z,1013.46
2017-11-18T06:16:17.993Z,1013.46
2017-11-18T06:17:18.012Z,1013.39
2017-11-18T06:18:18.027Z,1013.40
2017-11-18T06:19:18.045Z,1013.43
2017-11-18T06:20:18.061Z,1013.41
2017-11-18T06:21:18.078Z,1013.30
2017-11-18T06:22:18.096Z,1013.35
2017-11-18T06:23:18.113Z,1013.37
2017-11-18T06:24:18.129Z,1013.31
2017-11-18T06:25:18.148Z,1013.32
2017-11-18T06:26:18.166Z,1013.32
2017-11-18T06:27:18.190Z,1013.36
2017-11-18T06:28:18.197Z,1013.26
2017-11-18T06:29:18.216Z,1013.25
2017-11-18T06:30:18.232Z,1013.22
2017-11-18T06:31:18.255Z,1013.23
2017-11-18T06:32:18.266Z,1013.25
2017-11-18T06:33:18.287Z,1013.23
2017-11-18T06:34:18.301Z,1013.23
2017-11-18T06:35:18.317Z,1013.28
2017-11-18T06:36:18.334Z,1013.27
2017-11-18T06:37:18.352Z,1013.27
2017-11-18T06:38:18.370Z,1013.26
2017-11-18T06:39:18.385Z,1013.22
2017-11-18T06:40:18.402Z,1013.28
2017-11-18T06:41:18.421Z,1013.28
2017-11-18T06:42:18.437Z,1013.32
2017-11-18T06:43:18.454Z,1013.28
2017-11-18T06:44:18.472Z,1013.30
2017-11-18T06:45:18.490Z,1013.24
2017-11-18T06:46:18.506Z,1013.20
2017-11-18T06:47:18.522Z,1013.24
2017-11-18T06:48:18.539Z,1013.31
2017-11-18T06:49:18.559Z,1013.30
2017-11-18T06:50:18.573Z,1013.33
2017-11-18T06:51:18.592Z,1013.33
2017-11-18T06:52:18.607Z,1013.37
2017-11-18T06:53:18.625Z,1013.36
2017-11-18T06:54:18.643Z,1013.36
2017-11-18T06:55:18.819Z,1013.35
2017-11-18T06:56:18.677Z,1013.37
2017-11-18T06:57:18.693Z,1013.41
2017-11-18T06:58:18.711Z,1013.33
2017-11-18T06:59:18.728Z,1013.35
2017-11-18T07:00:18.746Z,1013.40
2017-11-18T07:01:18.761Z,1013.38
2017-11-18T07:02:18.778Z,1013.38
2017-11-18T07:03:18.797Z,1013.38
2017-11-18T07:04:18.814Z,1013.29
2017-11-18T07:05:18.831Z,1013.31
2017-11-18T07:06:18.848Z,1013.34
2017-11-18T07:07:18.864Z,1013.34
2017-11-18T07:08:18.881Z,1013.31
2017-11-18T07:09:18.898Z,1013.28
2017-11-18T07:10:18.916Z,1013.31
2017-11-18T07:11:18.934Z,1013.34
2017-11-18T07:12:18.950Z,1013.36
2017-11-18T07:13:18.967Z,1013.32
2017-11-18T07:14:18.985Z,1013.35
2017-11-18T07:15:19.001Z,1013.29
2017-11-18T07:16:19.026Z,1013.38
2017-11-18T07:17:19.036Z,1013.39
2017-11-18T07:18:19.053Z,1013.43
2017-11-18T07:19:19.071Z,1013.42
2017-11-18T07:20:19.088Z,1013.41
2017-11-18T07:21:19.104Z,1013.36
2017-11-18T07:22:19.126Z,1013.35
2017-11-18T07:23:19.140Z,1013.30
2017-11-18T07:24:19.155Z,1013.28
2017-11-18T07:25:19.172Z,1013.28
2017-11-18T07:26:19.191Z,1013.31
2017-11-18T07:27:19.208Z,1013.28
2017-11-18T07:28:19.224Z,1013.30
2017-11-18T07:29:19.241Z,1013.25
2017-11-18T07:30:19.265Z,1013.21
2017-11-18T07:31:19.275Z,1013.22
2017-11-18T07:32:19.294Z,1013.24
2017-11-18T07:33:19.310Z,1013.18
2017-11-18T07:34:19.354Z,1013.24
2017-11-18T07:35:19.346Z,1013.21
2017-11-18T07:36:19.362Z,1013.19
2017-11-18T07:37:19.379Z,1013.19
2017-11-18T07:38:19.397Z,1013.21
2017-11-18T07:39:19.415Z,1013.16
2017-11-18T07:40:19.431Z,1013.21
2017-11-18T07:41:19.448Z,1013.17
2017-11-18T07:42:19.465Z,1013.11
2017-11-18T07:43:19.484Z,1013.15
2017-11-18T07:44:19.499Z,1013.14
2017-11-18T07:45:19.517Z,1013.07
2017-11-18T07:46:19.534Z,1013.09
2017-11-18T07:47:19.552Z,1013.09
2017-11-18T07:48:19.569Z,1013.03
2017-11-18T07:49:19.587Z,1013.05
2017-11-18T07:50:19.603Z,1013.04
2017-11-18T07:51:19.627Z,1013.08
2017-11-18T07:52:19.637Z,1013.02
2017-11-18T07:53:19.655Z,1012.97
2017-11-18T07:54:19.672Z,1013.00
2017-11-18T07:55:19.691Z,1012.92
2017-11-18T07:56:19.706Z,1012.92
2017-11-18T07:57:19.723Z,1012.89
2017-11-18T07:58:19.742Z,1012.94
2017-11-18T07:59:19.759Z,1012.88
2017-11-18T08:00:19.775Z,1012.85
2017-11-18T08:01:19.792Z,1012.87
2017-11-18T08:02:19.811Z,1012.85
2017-11-18T08:03:19.828Z,1012.86
2017-11-18T08:04:19.872Z,1012.82
2017-11-18T08:05:19.862Z,1012.81
2017-11-18T08:06:19.881Z,1012.84
2017-11-18T08:07:19.897Z,1012.80
2017-11-18T08:08:19.914Z,1012.76
2017-11-18T08:09:19.931Z,1012.84
2017-11-18T08:10:19.957Z,1012.83
2017-11-18T08:11:19.975Z,1012.77
2017-11-18T08:12:19.982Z,1012.83
2017-11-18T08:13:20.004Z,1012.78
2017-11-18T08:14:20.019Z,1012.80
2017-11-18T08:15:20.035Z,1012.81
2017-11-18T08:16:20.052Z,1012.78
2017-11-18T08:17:20.070Z,1012.77
2017-11-18T08:18:20.087Z,1012.79
2017-11-18T08:19:20.104Z,1012.79
2017-11-18T08:20:20.122Z,1012.75
2017-11-18T08:21:20.138Z,1012.80
2017-11-18T08:22:20.156Z,1012.80
2017-11-18T08:23:20.181Z,1012.82
2017-11-18T08:24:20.191Z,1012.81
2017-11-18T08:25:20.209Z,1012.82
2017-11-18T08:26:20.225Z,1012.80
2017-11-18T08:27:20.245Z,1012.79
2017-11-18T08:28:20.261Z,1012.80
2017-11-18T08:29:20.278Z,1012.72
2017-11-18T08:30:20.294Z,1012.78
2017-11-18T08:31:20.313Z,1012.78
2017-11-18T08:32:20.330Z,1012.78
2017-11-18T08:33:20.355Z,1012.76
2017-11-18T08:34:20.365Z,1012.70
2017-11-18T08:35:20.382Z,1012.68
2017-11-18T08:36:20.399Z,1012.65
2017-11-18T08:37:20.417Z,1012.62
2017-11-18T08:38:20.435Z,1012.65
2017-11-18T08:39:20.452Z,1012.60
2017-11-18T08:40:20.471Z,1012.59
2017-11-18T08:41:20.488Z,1012.64
2017-11-18T08:42:20.504Z,1012.59
2017-11-18T08:43:20.522Z,1012.61
2017-11-18T08:44:20.538Z,1012.54
2017-11-18T08:45:20.556Z,1012.53
2017-11-18T08:46:20.573Z,1012.46
2017-11-18T08:47:20.592Z,1012.50
2017-11-18T08:48:20.609Z,1012.45
2017-11-18T08:49:20.626Z,1012.47
2017-11-18T08:50:20.643Z,1012.44
2017-11-18T08:51:20.661Z,1012.42
2017-11-18T08:52:20.677Z,1012.39
2017-11-18T08:53:20.696Z,1012.40
2017-11-18T08:54:20.712Z,1012.42
2017-11-18T08:55:20.730Z,1012.37
2017-11-18T08:56:20.748Z,1012.39
2017-11-18T08:57:20.865Z,1012.36
2017-11-18T08:58:20.783Z,1012.34
2017-11-18T08:59:20.799Z,1012.33
2017-11-18T09:00:20.817Z,1012.29
2017-11-18T09:01:20.834Z,1012.28
2017-11-18T09:02:20.854Z,1012.24
2017-11-18T09:03:20.871Z,1012.21
2017-11-18T09:04:20.887Z,1012.20
2017-11-18T09:05:20.904Z,1012.15
2017-11-18T09:06:20.922Z,1012.17
2017-11-18T09:07:20.940Z,1012.15
2017-11-18T09:08:20.956Z,1012.14
2017-11-18T09:09:20.976Z,1012.12
2017-11-18T09:10:20.992Z,1012.05
2017-11-18T09:11:21.014Z,1012.02
2017-11-18T09:12:21.026Z,1012.05
2017-11-18T09:13:21.046Z,1012.00
2017-11-18T09:14:21.078Z,1011.99
2017-11-18T09:15:21.080Z,1011.99
2017-11-18T09:16:21.098Z,1012.03
2017-11-18T09:17:21.115Z,1011.99
2017-11-18T09:18:21.132Z,1011.96
2017-11-18T09:19:21.151Z,1011.93
2017-11-18T09:20:21.167Z,1011.93
2017-11-18T09:21:21.187Z,1011.85
2017-11-18T09:22:21.203Z,1011.82
2017-11-18T09:23:21.222Z,1011.85
2017-11-18T09:24:21.239Z,1011.85
2017-11-18T09:25:21.255Z,1011.86
2017-11-18T09:26:21.275Z,1011.80
2017-11-18T09:27:21.292Z,1011.83
2017-11-18T09:28:21.308Z,1011.74
2017-11-18T09:29:21.327Z,1011.76
2017-11-18T09:30:21.345Z,1011.77
2017-11-18T09:31:21.362Z,1011.75
2017-11-18T09:32:21.379Z,1011.72
2017-11-18T09:33:21.397Z,1011.78
2017-11-18T09:34:21.418Z,1011.77
2017-11-18T09:35:21.432Z,1011.84
2017-11-18T09:36:21.450Z,1011.88
2017-11-18T09:37:21.469Z,1011.87
2017-11-18T09:38:21.486Z,1011.90
2017-11-18T09:39:21.503Z,1011.90
2017-11-18T09:40:21.519Z,1011.97
2017-11-18T09:41:21.538Z,1011.90
2017-11-18T09:42:21.555Z,1011.99
2017-11-18T09:43:21.573Z,1012.01
2017-11-18T09:44:21.593Z,1011.99
2017-11-18T09:45:21.608Z,1011.97
2017-11-18T09:46:21.627Z,1011.96
2017-11-18T09:47:21.646Z,1011.92
2017-11-18T09:48:21.661Z,1011.86
2017-11-18T09:49:21.679Z,1011.86
2017-11-18T09:50:21.700Z,1011.89
2017-11-18T09:51:21.716Z,1011.85
2017-11-18T09:52:21.736Z,1011.80
2017-11-18T09:53:21.752Z,1011.82
2017-11-18T09:54:21.770Z,1011.86
2017-11-18T09:55:21.787Z,1011.78
2017-11-18T09:56:21.806Z,1011.87
2017-11-18T09:57:21.822Z,1011.81
2017-11-18T09:58:21.841Z,1011.66
2017-11-18T09:59:21.858Z,1011.70
2017-11-18T10:00:21.875Z,1011.66
2017-11-18T10:01:21.893Z,1011.56
2017-11-18T10:02:21.913Z,1011.57
2017-11-18T10:03:21.930Z,1011.52
2017-11-18T10:04:21.954Z,1011.52
2017-11-18T10:05:21.965Z,1011.54
2017-11-18T10:06:21.983Z,1011.53
2017-11-18T10:07:22.000Z,1011.54
2017-11-18T10:08:22.019Z,1011.48
2017-11-18T10:09:22.043Z,1011.51
2017-11-18T10:10:22.054Z,1011.53
2017-11-18T10:11:22.074Z,1011.57
2017-11-18T10:12:22.089Z,1011.58
2017-11-18T10:13:22.111Z,1011.57
2017-11-18T10:14:22.124Z,1011.50
2017-11-18T10:15:22.150Z,1011.49
2017-11-18T10:16:22.262Z,1011.47
2017-11-18T10:17:22.179Z,1011.58
2017-11-18T10:18:22.199Z,1011.52
2017-11-18T10:19:22.215Z,1011.53
2017-11-18T10:20:22.232Z,1011.57
2017-11-18T10:21:22.251Z,1011.51
2017-11-18T10:22:22.268Z,1011.50
2017-11-18T10:23:22.286Z,1011.56
2017-11-18T10:24:22.309Z,1011.51
2017-11-18T10:25:22.323Z,1011.48
2017-11-18T10:26:22.340Z,1011.50
2017-11-18T10:27:22.358Z,1011.52
2017-11-18T10:28:22.377Z,1011.39
2017-11-18T10:29:22.398Z,1011.44
2017-11-18T10:30:22.421Z,1011.31
2017-11-18T10:31:22.430Z,1011.27
2017-11-18T10:32:22.449Z,1011.39
2017-11-18T10:33:22.465Z,1011.29
2017-11-18T10:34:22.485Z,1011.23
2017-11-18T10:35:22.506Z,1011.12
2017-11-18T10:36:22.524Z,1011.11
2017-11-18T10:37:22.538Z,1011.03
2017-11-18T10:38:22.556Z,1011.08
2017-11-18T10:39:22.575Z,1011.08
2017-11-18T10:40:22.591Z,1011.11
2017-11-18T10:41:22.611Z,1011.08
2017-11-18T10:42:22.628Z,1011.16
2017-11-18T10:43:22.646Z,1011.04
2017-11-18T10:44:22.663Z,1011.05
2017-11-18T10:45:22.683Z,1011.09
2017-11-18T10:46:22.699Z,1011.04
2017-11-18T10:47:22.718Z,1011.01
2017-11-18T10:48:22.735Z,1010.99
2017-11-18T10:49:22.754Z,1010.95
2017-11-18T10:50:22.772Z,1010.94
2017-11-18T10:51:22.792Z,1010.98
2017-11-18T10:52:22.806Z,1010.90
2017-11-18T10:53:22.838Z,1010.87
2017-11-18T10:54:22.843Z,1010.84
2017-11-18T10:55:22.862Z,1010.79
2017-11-18T10:56:22.880Z,1010.81
2017-11-18T10:57:22.899Z,1010.84
2017-11-18T10:58:22.916Z,1010.85
2017-11-18T10:59:22.934Z,1010.88
2017-11-18T11:00:22.953Z,1010.83
2017-11-18T11:01:22.970Z,1010.89
2017-11-18T11:02:22.990Z,1010.88
2017-11-18T11:03:23.007Z,1010.85
2017-11-18T11:04:23.024Z,1010.83
2017-11-18T11:05:23.044Z,1010.81
2017-11-18T11:06:23.062Z,1010.80
2017-11-18T11:07:23.079Z,1010.82
2017-11-18T11:08:23.098Z,1010.77
2017-11-18T11:09:23.116Z,1010.71
2017-11-18T11:10:23.136Z,1010.78
2017-11-18T11:11:23.152Z,1010.65
2017-11-18T11:12:23.171Z,1010.59
2017-11-18T11:13:23.188Z,1010.67
2017-11-18T11:14:23.206Z,1010.61
2017-11-18T11:15:23.227Z,1010.61
2017-11-18T11:16:23.244Z,1010.64
2017-11-18T11:17:23.263Z,1010.67
2017-11-18T11:18:23.280Z,1010.63
2017-11-18T11:19:23.298Z,1010.56
2017-11-18T11:20:23.345Z,1010.45
2017-11-18T11:21:23.333Z,1010.40
2017-11-18T11:22:23.353Z,1010.41
2017-11-18T11:23:23.372Z,1010.43
2017-11-18T11:24:23.388Z,1010.29
2017-11-18T11:25:23.407Z,1010.34
2017-11-18T11:26:23.425Z,1010.27
2017-11-18T11:27:23.445Z,1010.31
2017-11-18T11:28:23.461Z,1010.20
2017-11-18T11:29:23.479Z,1010.26
2017-11-18T11:30:23.498Z,1010.20
2017-11-18T11:31:23.518Z,1010.19
2017-11-18T11:32:23.535Z,1010.14
2017-11-18T11:33:23.553Z,1010.12
2017-11-18T11:34:23.571Z,1010.05
2017-11-18T11:35:23.589Z,1010.09
2017-11-18T11:36:23.607Z,1010.03
2017-11-18T11:37:23.625Z,1010.13
2017-11-18T11:38:23.649Z,1010.01
2017-11-18T11:39:23.671Z,1009.98
2017-11-18T11:40:23.679Z,1010.06
2017-11-18T11:41:23.698Z,1009.85
2017-11-18T11:42:23.716Z,1009.93
2017-11-18T11:43:23.741Z,1009.90
2017-11-18T11:44:23.756Z,1009.95
2017-11-18T11:45:23.772Z,1010.14
2017-11-18T11:46:23.789Z,1010.02
2017-11-18T11:47:23.808Z,1010.01
2017-11-18T11:48:23.826Z,1010.03
2017-11-18T11:49:23.842Z,1009.96
2017-11-18T11:50:23.862Z,1010.04
2017-11-18T11:51:23.880Z,1009.89
2017-11-18T11:52:23.897Z,1009.93
2017-11-18T11:53:23.916Z,1009.89
2017-11-18T11:54:23.934Z,1009.91
2017-11-18T11:55:23.953Z,1009.97
2017-11-18T11:56:24.010Z,1010.03
2017-11-18T11:57:23.990Z,1009.90
2017-11-18T11:58:24.007Z,1009.86
2017-11-18T11:59:24.027Z,1009.89
2017-11-18T12:00:24.048Z,1009.80
2017-11-18T12:01:24.064Z,1009.81
2017-11-18T12:02:24.080Z,1009.78
2017-11-18T12:03:24.102Z,1009.77
2017-11-18T12:04:24.117Z,1009.73
2017-11-18T12:05:24.137Z,1009.77